Kinrooi, Belgium
Current Conditions -  °F | °C
As of 9:25 AM on Sunday 26 Oct 2014 (Local Time) from EBBL Reporting Station
Broken Clouds Broken Clouds  
Wind Chill: 52°   Ceiling: 4200
Heat Index: 52°   Visibility: 6mi
Dew Point: 50°   Wind: 2mph
Humidity: 94%   Direction: NA
Pressure: 30.27"   Gusts: NA
Location:  51.15°N, 5.74°E
Report Text: EBBL 260725Z AUTO VRB02KT 9999 BKN042/// 11/10 Q1025 BLU
Loading
Personal Weather Stations






























Interactive Weather Map
Tropical Storm Tracking
New forecast layout! Learn more

10-Day Weather Forecast

Advertisements
Track Severe Weather on mobile